createdAt,value
2022-10-01T00:04:47.161Z,3.70
2022-10-01T00:09:50.224Z,3.03
2022-10-01T00:14:54.626Z,3.53
2022-10-01T00:19:57.955Z,3.40
2022-10-01T00:25:05.511Z,3.97
2022-10-01T00:30:11.161Z,3.87
2022-10-01T00:35:14.642Z,4.80
2022-10-01T00:40:19.458Z,4.43
2022-10-01T00:45:24.033Z,5.33
2022-10-01T00:50:33.319Z,3.80
2022-10-01T00:55:39.102Z,4.50
2022-10-01T01:00:44.386Z,4.20
2022-10-01T01:05:48.060Z,3.50
2022-10-01T01:10:58.069Z,3.93
2022-10-01T01:16:07.211Z,3.80
2022-10-01T01:21:20.514Z,3.83
2022-10-01T01:26:34.664Z,3.17
2022-10-01T01:31:46.410Z,3.33
2022-10-01T01:36:54.535Z,2.93
2022-10-01T01:42:01.936Z,2.50
2022-10-01T01:47:10.584Z,3.13
2022-10-01T01:52:16.143Z,2.67
2022-10-01T01:57:21.132Z,2.50
2022-10-01T02:02:33.241Z,2.43
2022-10-01T02:07:57.276Z,2.20
2022-10-01T02:13:15.391Z,2.30
2022-10-01T02:18:29.590Z,2.43
2022-10-01T02:23:37.304Z,2.67
2022-10-01T02:28:42.294Z,2.20
2022-10-01T02:33:48.367Z,2.10
2022-10-01T02:38:53.486Z,2.30
2022-10-01T02:44:00.733Z,1.90
2022-10-01T02:49:05.523Z,1.73
2022-10-01T02:54:14.783Z,2.27
2022-10-01T02:59:17.910Z,1.93
2022-10-01T03:04:22.250Z,1.60
2022-10-01T03:09:25.558Z,1.57
2022-10-01T03:14:28.842Z,1.87
2022-10-01T03:19:33.254Z,1.70
2022-10-01T03:24:36.276Z,1.70
2022-10-01T03:29:39.325Z,1.90
2022-10-01T03:34:43.762Z,2.30
2022-10-01T03:39:46.701Z,2.00
2022-10-01T03:44:49.779Z,1.83
2022-10-01T03:49:54.114Z,2.00
2022-10-01T03:54:57.057Z,2.50
2022-10-01T04:00:00.101Z,2.27
2022-10-01T04:05:05.458Z,2.50
2022-10-01T04:10:09.555Z,2.40
2022-10-01T04:15:12.633Z,2.33
2022-10-01T04:20:17.099Z,2.70
2022-10-01T04:25:20.352Z,2.57
2022-10-01T04:30:23.650Z,2.13
2022-10-01T04:35:28.429Z,2.50
2022-10-01T04:40:31.794Z,3.00
2022-10-01T04:45:34.699Z,2.53
2022-10-01T04:50:39.031Z,2.93
2022-10-01T04:55:42.985Z,3.10
2022-10-01T05:00:46.049Z,3.30
2022-10-01T05:05:50.457Z,3.43
2022-10-01T05:10:53.411Z,3.20
2022-10-01T05:15:56.510Z,3.30
2022-10-01T05:21:06.022Z,3.30
2022-10-01T05:26:09.525Z,4.30
2022-10-01T05:31:13.464Z,4.40
2022-10-01T05:36:18.028Z,3.70
2022-10-01T05:41:21.048Z,4.70
2022-10-01T05:46:24.120Z,4.63
2022-10-01T05:51:29.522Z,4.23
2022-10-01T05:56:32.812Z,4.83
2022-10-01T06:01:36.249Z,4.80
2022-10-01T06:06:40.914Z,4.67
2022-10-01T06:11:44.109Z,4.57
2022-10-01T06:16:47.912Z,4.30
2022-10-01T06:21:53.115Z,4.63
2022-10-01T06:26:56.491Z,4.37
2022-10-01T06:31:59.807Z,4.80
2022-10-01T06:37:04.133Z,3.73
2022-10-01T06:42:08.482Z,4.53
2022-10-01T06:47:11.514Z,4.60
2022-10-01T06:52:33.654Z,4.97
2022-10-01T06:57:36.766Z,4.40
2022-10-01T07:02:40.312Z,4.43
2022-10-01T07:07:45.290Z,4.80
2022-10-01T07:12:49.998Z,4.70
2022-10-01T07:17:53.785Z,4.83
2022-10-01T07:23:00.697Z,5.43
2022-10-01T07:28:07.125Z,5.40
2022-10-01T07:33:10.384Z,5.30
2022-10-01T07:38:14.791Z,3.13
2022-10-01T07:43:17.780Z,3.10
2022-10-01T07:48:21.253Z,3.07
2022-10-01T07:53:26.323Z,3.10
2022-10-01T07:58:29.422Z,3.00
2022-10-01T08:03:32.740Z,1.70
2022-10-01T08:08:37.241Z,1.60
2022-10-01T08:13:40.317Z,1.80
2022-10-01T08:18:43.318Z,1.40
2022-10-01T08:23:47.739Z,1.87
2022-10-01T08:28:50.779Z,1.40
2022-10-01T08:33:53.927Z,1.50
2022-10-01T08:39:00.352Z,1.90
2022-10-01T08:44:06.433Z,1.60
2022-10-01T08:49:18.656Z,2.10
2022-10-01T08:54:32.437Z,1.63
2022-10-01T08:59:41.299Z,2.33
2022-10-01T09:04:44.463Z,2.13
2022-10-01T09:10:01.594Z,2.65
2022-10-01T09:15:19.442Z,2.15
2022-10-01T09:20:27.032Z,1.88
2022-10-01T09:25:34.198Z,1.80
2022-10-01T09:30:38.602Z,2.45
2022-10-01T09:35:45.407Z,2.30
2022-10-01T09:40:54.949Z,2.30
2022-10-01T09:45:58.117Z,2.35
2022-10-01T09:51:10.220Z,4.15
2022-10-01T09:56:20.347Z,2.17
2022-10-01T10:01:30.951Z,2.42
2022-10-01T10:06:34.210Z,2.75
2022-10-01T10:11:42.953Z,2.05
2022-10-01T10:16:47.890Z,2.28
2022-10-01T10:21:53.147Z,1.98
2022-10-01T10:47:34.275Z,2.05
2022-10-01T10:52:40.786Z,2.03
2022-10-01T10:57:47.151Z,2.47
2022-10-01T11:02:56.795Z,1.75
2022-10-01T11:08:05.032Z,2.58
2022-10-01T11:13:34.225Z,2.17
2022-10-01T11:18:55.957Z,1.92
2022-10-01T11:24:23.761Z,2.45
2022-10-01T11:29:39.222Z,2.50
2022-10-01T11:35:00.635Z,2.50
2022-10-01T11:40:14.342Z,2.70
2022-10-01T11:45:24.267Z,2.25
2022-10-01T11:50:35.136Z,3.17
2022-10-01T11:56:04.517Z,2.38
2022-10-01T12:02:00.785Z,1.77
2022-10-01T12:07:14.807Z,2.42
2022-10-01T12:12:22.496Z,2.45
2022-10-01T12:17:34.179Z,1.90
2022-10-01T12:22:40.836Z,2.38
2022-10-01T12:27:55.650Z,2.25
2022-10-01T12:33:18.778Z,2.00
2022-10-01T12:38:40.899Z,2.40
2022-10-01T12:44:09.564Z,2.50
2022-10-01T12:49:23.547Z,1.83
2022-10-01T12:54:41.854Z,2.70
2022-10-01T12:59:59.551Z,1.77
2022-10-01T13:05:29.379Z,2.00
2022-10-01T13:10:52.786Z,2.10
2022-10-01T13:16:03.266Z,2.30
2022-10-01T13:21:13.311Z,2.42
2022-10-01T13:26:24.874Z,2.60
2022-10-01T13:31:38.836Z,1.52
2022-10-01T13:36:42.092Z,1.95
2022-10-01T13:41:48.079Z,2.13
2022-10-01T13:46:54.537Z,2.55
2022-10-01T13:51:59.053Z,2.42
2022-10-01T13:57:11.561Z,2.80
2022-10-01T14:02:32.135Z,1.95
2022-10-01T14:07:40.057Z,2.42
2022-10-01T14:13:05.370Z,2.15
2022-10-01T14:18:12.657Z,1.92
2022-10-01T14:23:20.898Z,2.10
2022-10-01T14:28:43.919Z,2.47
2022-10-01T14:34:10.447Z,2.35
2022-10-01T14:39:16.630Z,3.05
2022-10-01T14:44:24.553Z,2.47
2022-10-01T14:49:30.136Z,3.05
2022-10-01T14:54:42.990Z,2.10
2022-10-01T14:59:52.735Z,2.47
2022-10-01T15:04:57.685Z,2.05
2022-10-01T15:10:07.306Z,2.20
2022-10-01T15:15:20.703Z,2.10
2022-10-01T15:20:23.883Z,2.22
2022-10-01T15:25:31.506Z,2.03
2022-10-01T15:36:08.706Z,2.15
2022-10-01T15:41:35.099Z,2.60
2022-10-01T15:46:42.823Z,1.98
2022-10-01T15:52:12.292Z,2.63
2022-10-01T15:57:21.938Z,2.72
2022-10-01T16:02:30.003Z,2.53
2022-10-01T16:07:35.427Z,2.08
2022-10-01T16:12:38.815Z,1.95
2022-10-01T16:17:55.949Z,2.42
2022-10-01T16:23:40.063Z,2.78
2022-10-01T16:28:43.324Z,2.63
2022-10-01T16:33:49.690Z,2.58
2022-10-01T16:38:56.275Z,2.45
2022-10-01T16:44:02.157Z,2.30
2022-10-01T16:49:12.725Z,2.58
2022-10-01T16:54:22.446Z,2.33
2022-10-01T16:59:25.536Z,2.30
2022-10-01T17:04:33.984Z,3.10
2022-10-01T17:09:37.314Z,2.40
2022-10-01T17:14:40.945Z,2.70
2022-10-01T17:19:45.237Z,2.50
2022-10-01T17:24:48.771Z,2.28
2022-10-01T17:29:52.213Z,2.20
2022-10-01T17:34:58.874Z,2.60
2022-10-01T17:40:02.103Z,2.22
2022-10-01T17:45:08.275Z,3.15
2022-10-01T17:50:13.828Z,1.95
2022-10-01T17:55:17.279Z,2.58
2022-10-01T18:00:21.111Z,3.00
2022-10-01T18:05:25.528Z,2.60
2022-10-01T18:10:28.591Z,2.05
2022-10-01T18:15:31.561Z,3.03
2022-10-01T18:20:38.763Z,2.45
2022-10-01T18:25:42.004Z,2.78
2022-10-01T18:30:45.067Z,3.30
2022-10-01T18:35:59.302Z,2.72
2022-10-01T18:41:10.155Z,3.40
2022-10-01T18:46:25.302Z,2.90
2022-10-01T18:51:40.659Z,3.00
2022-10-01T18:56:53.040Z,2.40
2022-10-01T19:02:14.178Z,2.30
2022-10-01T19:07:33.452Z,3.03
2022-10-01T19:12:47.947Z,2.78
2022-10-01T19:18:06.286Z,3.08
2022-10-01T19:23:35.222Z,3.10
2022-10-01T19:28:50.656Z,3.08
2022-10-01T19:34:01.462Z,3.25
2022-10-01T19:39:11.767Z,3.03
2022-10-01T19:44:18.466Z,2.55
2022-10-01T19:49:27.743Z,3.33
2022-10-01T19:54:34.947Z,3.13
2022-10-01T19:59:38.243Z,3.43
2022-10-01T20:04:52.686Z,2.90
2022-10-01T20:10:05.800Z,4.00
2022-10-01T20:15:21.787Z,3.60
2022-10-01T20:20:33.426Z,2.87
2022-10-01T20:25:49.118Z,3.17
2022-10-01T20:31:01.342Z,3.33
2022-10-01T20:36:17.628Z,3.80
2022-10-01T20:41:25.017Z,3.27
2022-10-01T20:46:33.750Z,4.17
2022-10-01T20:51:46.018Z,3.60
2022-10-01T20:57:01.726Z,3.70
2022-10-01T21:02:19.028Z,3.13
2022-10-01T21:07:37.304Z,3.57
2022-10-01T21:12:49.128Z,3.90
2022-10-01T21:18:06.684Z,4.37
2022-10-01T21:23:22.537Z,3.80
2022-10-01T21:28:57.388Z,3.97
2022-10-01T21:34:03.963Z,4.27
2022-10-01T21:39:14.661Z,3.33
2022-10-01T21:44:52.762Z,4.00
2022-10-01T21:50:06.178Z,3.70
2022-10-01T21:55:37.393Z,4.47
2022-10-01T22:00:42.069Z,5.20
2022-10-01T22:05:51.862Z,5.27
2022-10-01T22:10:59.863Z,4.50
2022-10-01T22:16:09.799Z,4.40
2022-10-01T22:21:14.961Z,4.10
2022-10-01T22:26:22.409Z,5.50
2022-10-01T22:31:31.952Z,4.97
2022-10-01T22:36:40.512Z,2.50
2022-10-01T22:41:47.984Z,1.93
2022-10-01T22:47:30.472Z,1.67
2022-10-01T22:52:41.832Z,2.57
2022-10-01T22:58:07.232Z,2.60
2022-10-01T23:03:20.495Z,1.70
2022-10-01T23:08:40.595Z,1.70
2022-10-01T23:13:53.227Z,1.67
2022-10-01T23:19:08.283Z,2.13
2022-10-01T23:24:26.649Z,1.47
2022-10-01T23:29:47.728Z,1.37
2022-10-01T23:34:56.874Z,1.40
2022-10-01T23:40:07.520Z,1.80
2022-10-01T23:45:20.031Z,1.40
2022-10-01T23:50:32.169Z,1.50
2022-10-01T23:56:03.617Z,1.90
